sensor_id;sensor_type;location;lat;lon;timestamp;temperature;humidity
19906;DHT22;10115;50.906;4.438;2022-12-05T00:00:04;3.10;99.90
19906;DHT22;10115;50.906;4.438;2022-12-05T00:02:30;3.10;99.90
19906;DHT22;10115;50.906;4.438;2022-12-05T00:04:55;3.10;99.90
19906;DHT22;10115;50.906;4.438;2022-12-05T00:07:21;3.20;99.90
19906;DHT22;10115;50.906;4.438;2022-12-05T00:09:47;3.00;99.90
19906;DHT22;10115;50.906;4.438;2022-12-05T00:12:12;3.10;99.90
19906;DHT22;10115;50.906;4.438;2022-12-05T00:14:38;3.00;99.90
19906;DHT22;10115;50.906;4.438;2022-12-05T00:17:04;3.00;99.90
19906;DHT22;10115;50.906;4.438;2022-12-05T00:19:29;2.90;99.90
19906;DHT22;10115;50.906;4.438;2022-12-05T00:21:55;2.90;99.90
19906;DHT22;10115;50.906;4.438;2022-12-05T00:24:22;2.80;99.90
19906;DHT22;10115;50.906;4.438;2022-12-05T00:26:48;3.10;99.90
19906;DHT22;10115;50.906;4.438;2022-12-05T00:29:14;2.90;99.90
19906;DHT22;10115;50.906;4.438;2022-12-05T00:31:40;3.00;99.90
19906;DHT22;10115;50.906;4.438;2022-12-05T00:34:06;3.10;99.90
19906;DHT22;10115;50.906;4.438;2022-12-05T00:36:33;3.00;99.90
19906;DHT22;10115;50.906;4.438;2022-12-05T00:39:02;3.10;99.90
19906;DHT22;10115;50.906;4.438;2022-12-05T00:41:28;2.80;99.90
19906;DHT22;10115;50.906;4.438;2022-12-05T00:43:56;2.90;99.90
19906;DHT22;10115;50.906;4.438;2022-12-05T00:46:24;2.90;99.90
19906;DHT22;10115;50.906;4.438;2022-12-05T00:48:52;2.90;99.90
19906;DHT22;10115;50.906;4.438;2022-12-05T00:51:21;3.00;99.90
19906;DHT22;10115;50.906;4.438;2022-12-05T00:53:47;2.80;99.90
19906;DHT22;10115;50.906;4.438;2022-12-05T00:56:19;2.90;99.90
19906;DHT22;10115;50.906;4.438;2022-12-05T00:58:45;3.00;99.90
19906;DHT22;10115;50.906;4.438;2022-12-05T01:01:19;2.90;99.90
19906;DHT22;10115;50.906;4.438;2022-12-05T01:03:45;2.90;99.90
19906;DHT22;10115;50.906;4.438;2022-12-05T01:06:12;3.00;99.90
19906;DHT22;10115;50.906;4.438;2022-12-05T01:08:39;3.00;99.90
19906;DHT22;10115;50.906;4.438;2022-12-05T01:11:06;3.00;99.90
19906;DHT22;10115;50.906;4.438;2022-12-05T01:13:33;3.00;99.90
19906;DHT22;10115;50.906;4.438;2022-12-05T01:15:59;2.90;99.90
19906;DHT22;10115;50.906;4.438;2022-12-05T01:18:26;2.90;99.90
19906;DHT22;10115;50.906;4.438;2022-12-05T01:20:52;2.90;99.90
19906;DHT22;10115;50.906;4.438;2022-12-05T01:23:19;3.10;99.90
19906;DHT22;10115;50.906;4.438;2022-12-05T01:25:50;3.00;99.90
19906;DHT22;10115;50.906;4.438;2022-12-05T01:28:16;2.90;99.90
19906;DHT22;10115;50.906;4.438;2022-12-05T01:30:45;2.90;99.90
19906;DHT22;10115;50.906;4.438;2022-12-05T01:33:11;2.90;99.90
19906;DHT22;10115;50.906;4.438;2022-12-05T01:35:39;2.90;99.90
19906;DHT22;10115;50.906;4.438;2022-12-05T01:38:06;2.80;99.90
19906;DHT22;10115;50.906;4.438;2022-12-05T01:40:33;2.80;99.90
19906;DHT22;10115;50.906;4.438;2022-12-05T01:43:03;2.80;99.90
19906;DHT22;10115;50.906;4.438;2022-12-05T01:45:37;2.90;99.90
19906;DHT22;10115;50.906;4.438;2022-12-05T01:48:33;2.90;99.90
19906;DHT22;10115;50.906;4.438;2022-12-05T01:51:00;3.00;99.90
19906;DHT22;10115;50.906;4.438;2022-12-05T01:53:28;2.80;99.90
19906;DHT22;10115;50.906;4.438;2022-12-05T01:55:56;2.80;99.90
19906;DHT22;10115;50.906;4.438;2022-12-05T01:58:23;2.90;99.90
19906;DHT22;10115;50.906;4.438;2022-12-05T02:00:52;3.00;99.90
19906;DHT22;10115;50.906;4.438;2022-12-05T02:03:19;3.10;99.90
19906;DHT22;10115;50.906;4.438;2022-12-05T02:05:48;3.10;99.90
19906;DHT22;10115;50.906;4.438;2022-12-05T02:08:15;3.10;99.90
19906;DHT22;10115;50.906;4.438;2022-12-05T02:10:47;3.10;99.90
19906;DHT22;10115;50.906;4.438;2022-12-05T02:16:13;3.10;99.90
19906;DHT22;10115;50.906;4.438;2022-12-05T02:19:09;3.10;99.90
19906;DHT22;10115;50.906;4.438;2022-12-05T02:30:22;3.10;99.90
19906;DHT22;10115;50.906;4.438;2022-12-05T02:41:11;3.20;99.90
19906;DHT22;10115;50.906;4.438;2022-12-05T02:46:27;3.30;99.90
19906;DHT22;10115;50.906;4.438;2022-12-05T02:48:58;3.40;99.90
19906;DHT22;10115;50.906;4.438;2022-12-05T02:51:28;3.30;99.90
19906;DHT22;10115;50.906;4.438;2022-12-05T02:53:57;3.20;99.90
19906;DHT22;10115;50.906;4.438;2022-12-05T02:56:25;3.30;99.90
19906;DHT22;10115;50.906;4.438;2022-12-05T02:58:53;3.20;99.90
19906;DHT22;10115;50.906;4.438;2022-12-05T03:01:28;3.30;99.90
19906;DHT22;10115;50.906;4.438;2022-12-05T03:03:55;3.30;99.90
19906;DHT22;10115;50.906;4.438;2022-12-05T03:06:24;3.30;99.90
19906;DHT22;10115;50.906;4.438;2022-12-05T03:08:56;3.40;99.90
19906;DHT22;10115;50.906;4.438;2022-12-05T03:11:22;3.30;99.90
19906;DHT22;10115;50.906;4.438;2022-12-05T03:13:52;3.10;99.90
19906;DHT22;10115;50.906;4.438;2022-12-05T03:16:41;3.10;99.90
19906;DHT22;10115;50.906;4.438;2022-12-05T03:19:15;3.10;99.90
19906;DHT22;10115;50.906;4.438;2022-12-05T03:21:48;3.10;99.90
19906;DHT22;10115;50.906;4.438;2022-12-05T03:24:16;3.20;99.90
19906;DHT22;10115;50.906;4.438;2022-12-05T03:26:49;3.30;99.90
19906;DHT22;10115;50.906;4.438;2022-12-05T03:29:37;3.30;99.90
19906;DHT22;10115;50.906;4.438;2022-12-05T03:32:14;3.20;99.90
19906;DHT22;10115;50.906;4.438;2022-12-05T03:34:50;3.10;99.90
19906;DHT22;10115;50.906;4.438;2022-12-05T03:37:34;3.10;99.90
19906;DHT22;10115;50.906;4.438;2022-12-05T03:40:26;3.00;99.90
19906;DHT22;10115;50.906;4.438;2022-12-05T03:42:59;3.10;99.90
19906;DHT22;10115;50.906;4.438;2022-12-05T03:48:29;3.10;99.90
19906;DHT22;10115;50.906;4.438;2022-12-05T03:50:57;3.20;99.90
19906;DHT22;10115;50.906;4.438;2022-12-05T03:53:33;3.00;99.90
19906;DHT22;10115;50.906;4.438;2022-12-05T03:56:08;3.00;99.90
19906;DHT22;10115;50.906;4.438;2022-12-05T03:58:49;3.00;99.90
19906;DHT22;10115;50.906;4.438;2022-12-05T04:01:17;2.80;99.90
19906;DHT22;10115;50.906;4.438;2022-12-05T04:03:47;2.90;99.90
19906;DHT22;10115;50.906;4.438;2022-12-05T04:06:24;2.90;99.90
19906;DHT22;10115;50.906;4.438;2022-12-05T04:08:57;2.90;99.90
19906;DHT22;10115;50.906;4.438;2022-12-05T04:11:26;2.80;99.90
19906;DHT22;10115;50.906;4.438;2022-12-05T04:13:55;2.90;99.90
19906;DHT22;10115;50.906;4.438;2022-12-05T04:16:48;2.90;99.90
19906;DHT22;10115;50.906;4.438;2022-12-05T04:19:45;2.70;99.90
19906;DHT22;10115;50.906;4.438;2022-12-05T04:22:30;2.70;99.90
19906;DHT22;10115;50.906;4.438;2022-12-05T04:24:58;2.60;99.90
19906;DHT22;10115;50.906;4.438;2022-12-05T04:27:49;2.70;99.90
19906;DHT22;10115;50.906;4.438;2022-12-05T04:30:19;2.70;99.90
19906;DHT22;10115;50.906;4.438;2022-12-05T04:35:39;2.80;99.90
19906;DHT22;10115;50.906;4.438;2022-12-05T04:38:18;2.80;99.90
19906;DHT22;10115;50.906;4.438;2022-12-05T04:41:03;2.80;99.90
19906;DHT22;10115;50.906;4.438;2022-12-05T04:43:36;2.90;99.90
19906;DHT22;10115;50.906;4.438;2022-12-05T04:46:05;3.00;99.90
19906;DHT22;10115;50.906;4.438;2022-12-05T04:48:35;3.10;99.90
19906;DHT22;10115;50.906;4.438;2022-12-05T04:51:03;3.10;99.90
19906;DHT22;10115;50.906;4.438;2022-12-05T04:53:31;3.10;99.90
19906;DHT22;10115;50.906;4.438;2022-12-05T04:55:59;3.10;99.90
19906;DHT22;10115;50.906;4.438;2022-12-05T04:58:27;3.20;99.90
19906;DHT22;10115;50.906;4.438;2022-12-05T05:03:33;3.20;99.90
19906;DHT22;10115;50.906;4.438;2022-12-05T05:06:00;3.10;99.90
19906;DHT22;10115;50.906;4.438;2022-12-05T05:08:27;3.00;99.90
19906;DHT22;10115;50.906;4.438;2022-12-05T05:11:30;3.10;99.90
19906;DHT22;10115;50.906;4.438;2022-12-05T05:13:56;3.20;99.90
19906;DHT22;10115;50.906;4.438;2022-12-05T05:16:29;3.10;99.90
19906;DHT22;10115;50.906;4.438;2022-12-05T05:18:55;3.20;99.90
19906;DHT22;10115;50.906;4.438;2022-12-05T05:21:28;3.10;99.90
19906;DHT22;10115;50.906;4.438;2022-12-05T05:23:55;3.20;99.90
19906;DHT22;10115;50.906;4.438;2022-12-05T05:26:22;3.20;99.90
19906;DHT22;10115;50.906;4.438;2022-12-05T05:28:48;3.20;99.90
19906;DHT22;10115;50.906;4.438;2022-12-05T05:31:14;3.20;99.90
19906;DHT22;10115;50.906;4.438;2022-12-05T05:33:40;3.20;99.90
19906;DHT22;10115;50.906;4.438;2022-12-05T05:36:08;3.20;99.90
19906;DHT22;10115;50.906;4.438;2022-12-05T05:38:36;3.30;99.90
19906;DHT22;10115;50.906;4.438;2022-12-05T05:41:02;3.30;99.90
19906;DHT22;10115;50.906;4.438;2022-12-05T05:43:28;3.40;99.90
19906;DHT22;10115;50.906;4.438;2022-12-05T05:45:54;3.40;99.90
19906;DHT22;10115;50.906;4.438;2022-12-05T05:48:19;3.40;99.90
19906;DHT22;10115;50.906;4.438;2022-12-05T05:50:45;3.40;99.90
19906;DHT22;10115;50.906;4.438;2022-12-05T05:53:11;3.30;99.90
19906;DHT22;10115;50.906;4.438;2022-12-05T05:55:40;3.50;99.90
19906;DHT22;10115;50.906;4.438;2022-12-05T05:58:06;3.30;99.90
19906;DHT22;10115;50.906;4.438;2022-12-05T06:00:32;3.40;99.90
19906;DHT22;10115;50.906;4.438;2022-12-05T06:02:57;3.40;99.90
19906;DHT22;10115;50.906;4.438;2022-12-05T06:05:23;3.50;99.90
19906;DHT22;10115;50.906;4.438;2022-12-05T06:07:51;3.50;99.90
19906;DHT22;10115;50.906;4.438;2022-12-05T06:10:17;3.50;99.90
19906;DHT22;10115;50.906;4.438;2022-12-05T06:12:42;3.40;99.90
19906;DHT22;10115;50.906;4.438;2022-12-05T06:15:08;3.60;99.90
19906;DHT22;10115;50.906;4.438;2022-12-05T06:17:34;3.60;99.90
19906;DHT22;10115;50.906;4.438;2022-12-05T06:20:00;3.60;99.90
19906;DHT22;10115;50.906;4.438;2022-12-05T06:22:26;3.50;99.90
19906;DHT22;10115;50.906;4.438;2022-12-05T06:24:51;3.60;99.90
19906;DHT22;10115;50.906;4.438;2022-12-05T06:27:17;3.40;99.90
19906;DHT22;10115;50.906;4.438;2022-12-05T06:29:43;3.20;99.90
19906;DHT22;10115;50.906;4.438;2022-12-05T06:32:08;3.20;99.90
19906;DHT22;10115;50.906;4.438;2022-12-05T06:34:34;3.20;99.90
19906;DHT22;10115;50.906;4.438;2022-12-05T06:37:00;3.10;99.90
19906;DHT22;10115;50.906;4.438;2022-12-05T06:39:26;3.10;99.90
19906;DHT22;10115;50.906;4.438;2022-12-05T06:41:52;3.00;99.90
19906;DHT22;10115;50.906;4.438;2022-12-05T06:44:18;3.10;99.90
19906;DHT22;10115;50.906;4.438;2022-12-05T06:46:44;3.10;99.90
19906;DHT22;10115;50.906;4.438;2022-12-05T06:49:10;3.10;99.90
19906;DHT22;10115;50.906;4.438;2022-12-05T06:51:36;3.20;99.90
19906;DHT22;10115;50.906;4.438;2022-12-05T06:54:02;3.30;99.90
19906;DHT22;10115;50.906;4.438;2022-12-05T06:56:27;3.40;99.90
19906;DHT22;10115;50.906;4.438;2022-12-05T06:58:54;3.50;99.90
19906;DHT22;10115;50.906;4.438;2022-12-05T07:01:23;3.60;99.90
19906;DHT22;10115;50.906;4.438;2022-12-05T07:04:19;3.70;99.90
19906;DHT22;10115;50.906;4.438;2022-12-05T07:06:47;3.80;99.90
19906;DHT22;10115;50.906;4.438;2022-12-05T07:09:16;3.80;99.90
19906;DHT22;10115;50.906;4.438;2022-12-05T07:11:48;3.60;99.90
19906;DHT22;10115;50.906;4.438;2022-12-05T07:14:15;3.60;99.90
19906;DHT22;10115;50.906;4.438;2022-12-05T07:16:41;3.70;99.90
19906;DHT22;10115;50.906;4.438;2022-12-05T07:19:06;3.80;99.90
19906;DHT22;10115;50.906;4.438;2022-12-05T07:21:32;3.80;99.90
19906;DHT22;10115;50.906;4.438;2022-12-05T07:23:58;3.70;99.90
19906;DHT22;10115;50.906;4.438;2022-12-05T07:26:24;3.70;99.90
19906;DHT22;10115;50.906;4.438;2022-12-05T07:28:50;3.60;99.90
19906;DHT22;10115;50.906;4.438;2022-12-05T07:31:19;3.50;99.90
19906;DHT22;10115;50.906;4.438;2022-12-05T07:33:46;3.70;99.90
19906;DHT22;10115;50.906;4.438;2022-12-05T07:36:15;3.80;99.90
19906;DHT22;10115;50.906;4.438;2022-12-05T07:38:41;3.70;99.90
19906;DHT22;10115;50.906;4.438;2022-12-05T07:41:35;3.80;99.90
19906;DHT22;10115;50.906;4.438;2022-12-05T07:44:00;3.80;99.90
19906;DHT22;10115;50.906;4.438;2022-12-05T07:46:27;3.90;99.90
19906;DHT22;10115;50.906;4.438;2022-12-05T07:48:53;3.90;99.90
19906;DHT22;10115;50.906;4.438;2022-12-05T07:51:20;4.00;99.90
19906;DHT22;10115;50.906;4.438;2022-12-05T07:53:46;3.90;99.90
19906;DHT22;10115;50.906;4.438;2022-12-05T07:56:14;3.90;99.90
19906;DHT22;10115;50.906;4.438;2022-12-05T07:58:45;3.90;99.90
19906;DHT22;10115;50.906;4.438;2022-12-05T08:01:22;3.70;99.90
19906;DHT22;10115;50.906;4.438;2022-12-05T08:03:49;3.80;99.90
19906;DHT22;10115;50.906;4.438;2022-12-05T08:06:18;3.90;99.90
19906;DHT22;10115;50.906;4.438;2022-12-05T08:08:45;4.10;99.90
19906;DHT22;10115;50.906;4.438;2022-12-05T08:11:16;4.00;99.90
19906;DHT22;10115;50.906;4.438;2022-12-05T08:13:43;3.90;99.90
19906;DHT22;10115;50.906;4.438;2022-12-05T08:16:12;3.90;99.90
19906;DHT22;10115;50.906;4.438;2022-12-05T08:18:37;3.80;99.90
19906;DHT22;10115;50.906;4.438;2022-12-05T08:21:05;3.80;99.90
19906;DHT22;10115;50.906;4.438;2022-12-05T08:23:32;3.80;99.90
19906;DHT22;10115;50.906;4.438;2022-12-05T08:26:07;4.00;99.90
19906;DHT22;10115;50.906;4.438;2022-12-05T08:28:33;4.00;99.90
19906;DHT22;10115;50.906;4.438;2022-12-05T08:31:14;4.00;99.90
19906;DHT22;10115;50.906;4.438;2022-12-05T08:33:41;4.00;99.90
19906;DHT22;10115;50.906;4.438;2022-12-05T08:36:10;4.10;99.90
19906;DHT22;10115;50.906;4.438;2022-12-05T08:38:36;4.20;99.90
19906;DHT22;10115;50.906;4.438;2022-12-05T08:41:03;4.20;99.90
19906;DHT22;10115;50.906;4.438;2022-12-05T08:43:30;4.30;99.90
19906;DHT22;10115;50.906;4.438;2022-12-05T08:45:56;4.20;99.90
19906;DHT22;10115;50.906;4.438;2022-12-05T08:48:23;4.10;99.90
19906;DHT22;10115;50.906;4.438;2022-12-05T08:50:49;4.00;99.90
19906;DHT22;10115;50.906;4.438;2022-12-05T08:53:15;4.00;99.90
19906;DHT22;10115;50.906;4.438;2022-12-05T08:55:41;4.10;99.90
19906;DHT22;10115;50.906;4.438;2022-12-05T08:58:07;4.20;99.90
19906;DHT22;10115;50.906;4.438;2022-12-05T09:00:33;4.30;99.90
19906;DHT22;10115;50.906;4.438;2022-12-05T09:02:59;4.30;99.90
19906;DHT22;10115;50.906;4.438;2022-12-05T09:05:25;4.40;99.90
19906;DHT22;10115;50.906;4.438;2022-12-05T09:07:51;4.40;99.90
19906;DHT22;10115;50.906;4.438;2022-12-05T09:10:17;4.50;99.90
19906;DHT22;10115;50.906;4.438;2022-12-05T09:12:42;4.60;99.90
19906;DHT22;10115;50.906;4.438;2022-12-05T09:15:10;4.60;99.90
19906;DHT22;10115;50.906;4.438;2022-12-05T09:17:36;4.70;99.90
19906;DHT22;10115;50.906;4.438;2022-12-05T09:20:03;4.70;99.90
19906;DHT22;10115;50.906;4.438;2022-12-05T09:22:29;4.80;99.90
19906;DHT22;10115;50.906;4.438;2022-12-05T09:24:55;4.90;99.90
19906;DHT22;10115;50.906;4.438;2022-12-05T09:27:20;4.60;99.90
19906;DHT22;10115;50.906;4.438;2022-12-05T09:29:46;4.50;99.90
19906;DHT22;10115;50.906;4.438;2022-12-05T09:32:12;4.70;99.90
19906;DHT22;10115;50.906;4.438;2022-12-05T09:34:38;4.90;99.90
19906;DHT22;10115;50.906;4.438;2022-12-05T09:37:04;4.80;99.90
19906;DHT22;10115;50.906;4.438;2022-12-05T09:39:30;4.80;99.90
19906;DHT22;10115;50.906;4.438;2022-12-05T09:41:59;4.70;99.90
19906;DHT22;10115;50.906;4.438;2022-12-05T09:45:15;4.70;99.90
19906;DHT22;10115;50.906;4.438;2022-12-05T09:47:34;4.90;99.90
19906;DHT22;10115;50.906;4.438;2022-12-05T09:53:12;5.00;99.90
19906;DHT22;10115;50.906;4.438;2022-12-05T09:58:49;5.10;99.90
19906;DHT22;10115;50.906;4.438;2022-12-05T10:09:47;5.50;99.90
19906;DHT22;10115;50.906;4.438;2022-12-05T10:12:49;5.60;99.90
19906;DHT22;10115;50.906;4.438;2022-12-05T10:15:41;5.60;99.90
19906;DHT22;10115;50.906;4.438;2022-12-05T10:18:27;5.50;99.90
19906;DHT22;10115;50.906;4.438;2022-12-05T10:26:12;5.10;99.90
19906;DHT22;10115;50.906;4.438;2022-12-05T10:31:24;5.30;99.90
19906;DHT22;10115;50.906;4.438;2022-12-05T10:34:00;5.40;99.90
19906;DHT22;10115;50.906;4.438;2022-12-05T10:36:27;5.40;99.90
19906;DHT22;10115;50.906;4.438;2022-12-05T10:38:53;5.30;99.90
19906;DHT22;10115;50.906;4.438;2022-12-05T10:41:21;5.30;99.90
19906;DHT22;10115;50.906;4.438;2022-12-05T10:43:46;5.20;99.90
19906;DHT22;10115;50.906;4.438;2022-12-05T10:46:15;5.20;99.90
19906;DHT22;10115;50.906;4.438;2022-12-05T10:48:41;5.20;99.90
19906;DHT22;10115;50.906;4.438;2022-12-05T10:51:14;5.00;99.90
19906;DHT22;10115;50.906;4.438;2022-12-05T10:53:46;4.90;99.90
19906;DHT22;10115;50.906;4.438;2022-12-05T10:56:36;4.80;99.90
19906;DHT22;10115;50.906;4.438;2022-12-05T10:59:03;4.70;99.90
19906;DHT22;10115;50.906;4.438;2022-12-05T11:01:29;4.80;99.90
19906;DHT22;10115;50.906;4.438;2022-12-05T11:04:17;4.80;99.90
19906;DHT22;10115;50.906;4.438;2022-12-05T11:06:55;4.70;99.90
19906;DHT22;10115;50.906;4.438;2022-12-05T11:09:31;4.80;99.90
19906;DHT22;10115;50.906;4.438;2022-12-05T11:12:17;4.90;99.90
19906;DHT22;10115;50.906;4.438;2022-12-05T11:19:55;5.00;99.90
19906;DHT22;10115;50.906;4.438;2022-12-05T11:22:30;5.00;99.90
19906;DHT22;10115;50.906;4.438;2022-12-05T11:24:56;4.90;99.90
19906;DHT22;10115;50.906;4.438;2022-12-05T11:27:31;4.90;99.90
19906;DHT22;10115;50.906;4.438;2022-12-05T11:30:19;4.90;99.90
19906;DHT22;10115;50.906;4.438;2022-12-05T11:32:45;4.90;99.90
19906;DHT22;10115;50.906;4.438;2022-12-05T11:40:15;4.70;99.90
19906;DHT22;10115;50.906;4.438;2022-12-05T11:45:20;4.90;99.90
19906;DHT22;10115;50.906;4.438;2022-12-05T11:48:09;4.90;99.90
19906;DHT22;10115;50.906;4.438;2022-12-05T11:53:29;5.10;99.90
19906;DHT22;10115;50.906;4.438;2022-12-05T11:58:53;5.20;99.90
19906;DHT22;10115;50.906;4.438;2022-12-05T12:01:55;4.90;99.90
19906;DHT22;10115;50.906;4.438;2022-12-05T12:07:01;5.10;99.90
19906;DHT22;10115;50.906;4.438;2022-12-05T12:18:14;5.20;99.90
19906;DHT22;10115;50.906;4.438;2022-12-05T12:40:52;4.70;99.90
19906;DHT22;10115;50.906;4.438;2022-12-05T12:51:30;4.70;99.90
19906;DHT22;10115;50.906;4.438;2022-12-05T13:02:01;4.70;99.90
19906;DHT22;10115;50.906;4.438;2022-12-05T13:04:30;4.60;99.90
19906;DHT22;10115;50.906;4.438;2022-12-05T13:10:10;4.80;99.90
19906;DHT22;10115;50.906;4.438;2022-12-05T13:12:38;4.80;99.90
19906;DHT22;10115;50.906;4.438;2022-12-05T13:15:14;4.70;99.90
19906;DHT22;10115;50.906;4.438;2022-12-05T13:17:42;4.70;99.90
19906;DHT22;10115;50.906;4.438;2022-12-05T13:20:20;4.90;99.90
19906;DHT22;10115;50.906;4.438;2022-12-05T13:22:48;5.00;99.90
19906;DHT22;10115;50.906;4.438;2022-12-05T13:25:15;4.90;99.90
19906;DHT22;10115;50.906;4.438;2022-12-05T13:28:02;5.20;99.90
19906;DHT22;10115;50.906;4.438;2022-12-05T13:30:29;5.30;99.90
19906;DHT22;10115;50.906;4.438;2022-12-05T13:33:02;5.40;99.90
19906;DHT22;10115;50.906;4.438;2022-12-05T13:35:34;5.30;99.90
19906;DHT22;10115;50.906;4.438;2022-12-05T13:38:30;5.40;99.90
19906;DHT22;10115;50.906;4.438;2022-12-05T13:41:16;5.50;99.90
19906;DHT22;10115;50.906;4.438;2022-12-05T13:44:01;5.20;99.90
19906;DHT22;10115;50.906;4.438;2022-12-05T13:46:30;5.10;99.90
19906;DHT22;10115;50.906;4.438;2022-12-05T13:49:03;5.20;99.90
19906;DHT22;10115;50.906;4.438;2022-12-05T13:51:40;5.20;99.90
19906;DHT22;10115;50.906;4.438;2022-12-05T13:54:12;5.20;99.90
19906;DHT22;10115;50.906;4.438;2022-12-05T13:56:47;5.10;99.90
19906;DHT22;10115;50.906;4.438;2022-12-05T14:15:33;5.10;99.90
19906;DHT22;10115;50.906;4.438;2022-12-05T14:18:13;5.20;99.90
19906;DHT22;10115;50.906;4.438;2022-12-05T14:29:17;5.30;99.90
19906;DHT22;10115;50.906;4.438;2022-12-05T14:32:09;5.20;99.90
19906;DHT22;10115;50.906;4.438;2022-12-05T14:37:25;5.30;99.90
19906;DHT22;10115;50.906;4.438;2022-12-05T14:39:54;5.30;99.90
19906;DHT22;10115;50.906;4.438;2022-12-05T14:48:41;5.00;99.90
19906;DHT22;10115;50.906;4.438;2022-12-05T14:50:49;4.90;99.90
19906;DHT22;10115;50.906;4.438;2022-12-05T14:59:01;4.70;99.90
19906;DHT22;10115;50.906;4.438;2022-12-05T15:01:39;4.80;99.90
19906;DHT22;10115;50.906;4.438;2022-12-05T15:04:15;4.50;99.90
19906;DHT22;10115;50.906;4.438;2022-12-05T15:09:39;4.40;99.90
19906;DHT22;10115;50.906;4.438;2022-12-05T15:12:14;4.30;99.90
19906;DHT22;10115;50.906;4.438;2022-12-05T15:15:05;4.40;99.90
19906;DHT22;10115;50.906;4.438;2022-12-05T15:17:55;4.50;99.90
19906;DHT22;10115;50.906;4.438;2022-12-05T15:20:42;4.70;99.90
19906;DHT22;10115;50.906;4.438;2022-12-05T15:23:38;4.80;99.90
19906;DHT22;10115;50.906;4.438;2022-12-05T15:26:20;4.60;99.90
19906;DHT22;10115;50.906;4.438;2022-12-05T15:31:56;4.50;99.90
19906;DHT22;10115;50.906;4.438;2022-12-05T15:39:58;4.60;99.90
19906;DHT22;10115;50.906;4.438;2022-12-05T15:42:27;4.60;99.90
19906;DHT22;10115;50.906;4.438;2022-12-05T15:47:39;4.70;99.90
19906;DHT22;10115;50.906;4.438;2022-12-05T15:50:11;4.70;99.90
19906;DHT22;10115;50.906;4.438;2022-12-05T15:55:40;4.70;99.90
19906;DHT22;10115;50.906;4.438;2022-12-05T15:58:08;4.60;99.90
19906;DHT22;10115;50.906;4.438;2022-12-05T16:00:39;4.60;99.90
19906;DHT22;10115;50.906;4.438;2022-12-05T16:03:17;4.70;99.90
19906;DHT22;10115;50.906;4.438;2022-12-05T16:05:52;4.70;99.90
19906;DHT22;10115;50.906;4.438;2022-12-05T16:08:20;4.70;99.90
19906;DHT22;10115;50.906;4.438;2022-12-05T16:10:49;4.70;99.90
19906;DHT22;10115;50.906;4.438;2022-12-05T16:13:16;4.50;99.90
19906;DHT22;10115;50.906;4.438;2022-12-05T16:15:51;4.40;99.90
19906;DHT22;10115;50.906;4.438;2022-12-05T16:18:29;4.30;99.90
19906;DHT22;10115;50.906;4.438;2022-12-05T16:20:55;4.30;99.90
19906;DHT22;10115;50.906;4.438;2022-12-05T16:23:34;4.30;99.90
19906;DHT22;10115;50.906;4.438;2022-12-05T16:26:22;4.30;99.90
19906;DHT22;10115;50.906;4.438;2022-12-05T16:28:56;4.30;99.90
19906;DHT22;10115;50.906;4.438;2022-12-05T16:31:23;4.30;99.90
19906;DHT22;10115;50.906;4.438;2022-12-05T16:34:05;4.30;99.90
19906;DHT22;10115;50.906;4.438;2022-12-05T16:36:32;4.30;99.90
19906;DHT22;10115;50.906;4.438;2022-12-05T16:39:03;4.30;99.90
19906;DHT22;10115;50.906;4.438;2022-12-05T16:41:34;4.30;99.90
19906;DHT22;10115;50.906;4.438;2022-12-05T16:44:01;4.40;99.90
19906;DHT22;10115;50.906;4.438;2022-12-05T16:54:35;4.50;99.90
19906;DHT22;10115;50.906;4.438;2022-12-05T16:57:01;4.50;99.90
19906;DHT22;10115;50.906;4.438;2022-12-05T16:59:35;4.40;99.90
19906;DHT22;10115;50.906;4.438;2022-12-05T17:02:03;4.40;99.90
19906;DHT22;10115;50.906;4.438;2022-12-05T17:04:29;4.40;99.90
19906;DHT22;10115;50.906;4.438;2022-12-05T17:06:56;4.50;99.90
19906;DHT22;10115;50.906;4.438;2022-12-05T17:09:21;4.50;99.90
19906;DHT22;10115;50.906;4.438;2022-12-05T17:11:50;4.50;99.90
19906;DHT22;10115;50.906;4.438;2022-12-05T17:14:17;4.50;99.90
19906;DHT22;10115;50.906;4.438;2022-12-05T17:16:43;4.50;99.90
19906;DHT22;10115;50.906;4.438;2022-12-05T17:19:10;4.50;99.90
19906;DHT22;10115;50.906;4.438;2022-12-05T17:21:37;4.50;99.90
19906;DHT22;10115;50.906;4.438;2022-12-05T17:24:03;4.50;99.90
19906;DHT22;10115;50.906;4.438;2022-12-05T17:26:29;4.50;99.90
19906;DHT22;10115;50.906;4.438;2022-12-05T17:28:55;4.60;99.90
19906;DHT22;10115;50.906;4.438;2022-12-05T17:31:22;4.50;99.90
19906;DHT22;10115;50.906;4.438;2022-12-05T17:33:50;4.50;99.90
19906;DHT22;10115;50.906;4.438;2022-12-05T17:36:16;4.50;99.90
19906;DHT22;10115;50.906;4.438;2022-12-05T17:38:42;4.50;99.90
19906;DHT22;10115;50.906;4.438;2022-12-05T17:41:20;4.50;99.90
19906;DHT22;10115;50.906;4.438;2022-12-05T17:43:47;4.60;99.90
19906;DHT22;10115;50.906;4.438;2022-12-05T17:46:21;4.60;99.90
19906;DHT22;10115;50.906;4.438;2022-12-05T17:48:48;4.60;99.90
19906;DHT22;10115;50.906;4.438;2022-12-05T17:51:14;4.60;99.90
19906;DHT22;10115;50.906;4.438;2022-12-05T17:53:41;4.60;99.90
19906;DHT22;10115;50.906;4.438;2022-12-05T17:56:09;4.60;99.90
19906;DHT22;10115;50.906;4.438;2022-12-05T17:58:35;4.60;99.90
19906;DHT22;10115;50.906;4.438;2022-12-05T18:01:00;4.60;99.90
19906;DHT22;10115;50.906;4.438;2022-12-05T18:03:26;4.60;99.90
19906;DHT22;10115;50.906;4.438;2022-12-05T18:05:52;4.60;99.90
19906;DHT22;10115;50.906;4.438;2022-12-05T18:08:18;4.60;99.90
19906;DHT22;10115;50.906;4.438;2022-12-05T18:10:46;4.60;99.90
19906;DHT22;10115;50.906;4.438;2022-12-05T18:13:12;4.60;99.90
19906;DHT22;10115;50.906;4.438;2022-12-05T18:15:39;4.70;99.90
19906;DHT22;10115;50.906;4.438;2022-12-05T18:18:05;4.80;99.90
19906;DHT22;10115;50.906;4.438;2022-12-05T18:20:33;4.70;99.90
19906;DHT22;10115;50.906;4.438;2022-12-05T18:23:00;4.70;99.90
19906;DHT22;10115;50.906;4.438;2022-12-05T18:25:27;4.70;99.90
19906;DHT22;10115;50.906;4.438;2022-12-05T18:27:52;4.70;99.90
19906;DHT22;10115;50.906;4.438;2022-12-05T18:30:18;4.70;99.90
19906;DHT22;10115;50.906;4.438;2022-12-05T18:32:44;4.70;99.90
19906;DHT22;10115;50.906;4.438;2022-12-05T18:35:10;4.70;99.90
19906;DHT22;10115;50.906;4.438;2022-12-05T18:37:36;4.70;99.90
19906;DHT22;10115;50.906;4.438;2022-12-05T18:40:03;4.80;99.90
19906;DHT22;10115;50.906;4.438;2022-12-05T18:42:29;4.70;99.90
19906;DHT22;10115;50.906;4.438;2022-12-05T18:44:55;4.70;99.90
19906;DHT22;10115;50.906;4.438;2022-12-05T18:47:21;4.60;99.90
19906;DHT22;10115;50.906;4.438;2022-12-05T18:49:48;4.60;99.90
19906;DHT22;10115;50.906;4.438;2022-12-05T18:52:14;4.60;99.90
19906;DHT22;10115;50.906;4.438;2022-12-05T18:54:40;4.60;99.90
19906;DHT22;10115;50.906;4.438;2022-12-05T18:57:05;4.60;99.90
19906;DHT22;10115;50.906;4.438;2022-12-05T18:59:31;4.60;99.90
19906;DHT22;10115;50.906;4.438;2022-12-05T19:01:57;4.60;99.90
19906;DHT22;10115;50.906;4.438;2022-12-05T19:04:26;4.60;99.90
19906;DHT22;10115;50.906;4.438;2022-12-05T19:06:59;4.60;99.90
19906;DHT22;10115;50.906;4.438;2022-12-05T19:09:28;4.60;99.90
19906;DHT22;10115;50.906;4.438;2022-12-05T19:11:55;4.60;99.90